Eastern Iowa Airport (CID)


Airport Diagram
Current Weather/Forecast (VFR Conditions)
METAR KCID 271452Z 26009KT 10SM OVC042 M04/M07 A3008 RMK AO2 SLP202 T10441072 53017
TAF KCID 271136Z 2712/2812 23008KT P6SM BKN110 WS013/26037KT FM271400 26009KT P6SM BKN110 FM271600 29010KT P6SM BKN035

All Charts
General
Chart Name Download
AIRPORT DIAGRAM
TAKEOFF MINIMUMS
ALTERNATE MINIMUMS
HOT SPOT

Approaches
Chart Name Download
ILS OR LOC RWY 09
ILS OR LOC RWY 27
RNAV (GPS) RWY 09
RNAV (GPS) RWY 13
RNAV (GPS) RWY 27
RNAV (GPS) RWY 31